Time;durP1;ratioP1;P1;durP2;ratioP2;P2;SDS_P1;SDS_P2;PMS_P1;PMS_P2;Temp;Humidity;BMP_temperature;BMP_pressure;BME280_temperature;BME280_humidity;BME280_pressure;Samples;Min_cycle;Max_cycle;Signal;HPM_P1;HPM_P2
2023/10/27 00:01:58;;;;;;;9.20;7.10;;;;;;;11.62;98.46;98430.58;108936;278;38498;-67
2023/10/27 00:04:32;;;;;;;7.50;6.90;;;;;;;11.60;98.81;98431.41;108939;278;39683;-71
2023/10/27 00:07:16;;;;;;;8.30;7.50;;;;;;;11.61;98.78;98427.55;108941;278;38753;-71
2023/10/27 00:09:56;;;;;;;8.40;7.60;;;;;;;11.60;98.98;98422.52;108912;278;38478;-66
2023/10/27 00:12:38;;;;;;;8.10;7.30;;;;;;;11.58;98.88;98417.42;109004;278;37981;-70
2023/10/27 00:15:15;;;;;;;7.90;7.20;;;;;;;11.55;98.60;98415.72;108906;278;38430;-70
2023/10/27 00:17:51;;;;;;;8.00;7.30;;;;;;;11.53;98.52;98414.54;108965;278;39624;-70
2023/10/27 00:20:25;;;;;;;9.60;7.60;;;;;;;11.51;98.52;98413.27;108978;278;38892;-71
2023/10/27 00:23:05;;;;;;;7.80;7.00;;;;;;;11.48;98.43;98406.83;108949;278;38794;-67
2023/10/27 00:25:46;;;;;;;8.30;7.20;;;;;;;11.47;98.65;98403.77;108925;278;38799;-67
2023/10/27 00:28:23;;;;;;;7.30;6.60;;;;;;;11.47;98.65;98401.48;109010;278;39685;-71
2023/10/27 00:30:57;;;;;;;7.80;7.10;;;;;;;11.48;98.70;98394.32;108951;278;39233;-71
2023/10/27 00:33:36;;;;;;;8.00;7.20;;;;;;;11.48;98.61;98400.00;108943;278;38646;-67
2023/10/27 00:36:11;;;;;;;8.40;7.40;;;;;;;11.45;98.46;98398.50;108922;278;38216;-66
2023/10/27 00:38:50;;;;;;;8.00;7.30;;;;;;;11.40;98.26;98397.98;108969;278;39354;-67
2023/10/27 00:41:32;;;;;;;8.80;7.90;;;;;;;11.35;98.17;98402.00;108907;278;39138;-67
2023/10/27 00:44:12;;;;;;;7.80;7.10;;;;;;;11.30;98.33;98408.48;108902;278;39452;-70
2023/10/27 00:46:46;;;;;;;7.60;6.90;;;;;;;11.31;98.58;98412.73;108954;278;39390;-71
2023/10/27 00:49:20;;;;;;;7.60;7.00;;;;;;;11.30;98.55;98411.42;108957;278;38777;-67
2023/10/27 00:51:58;;;;;;;7.90;7.20;;;;;;;11.31;98.72;98413.99;108917;278;38238;-66
2023/10/27 00:54:33;;;;;;;8.10;6.80;;;;;;;11.32;98.92;98414.08;109029;278;38608;-66
2023/10/27 00:57:09;;;;;;;7.10;6.50;;;;;;;11.33;98.80;98410.69;108999;278;39361;-66
2023/10/27 00:59:43;;;;;;;7.40;6.70;;;;;;;11.32;98.44;98407.98;108977;278;38385;-70
2023/10/27 01:02:21;;;;;;;8.00;7.10;;;;;;;11.30;98.55;98407.08;108948;278;38174;-69
2023/10/27 01:04:55;;;;;;;8.70;7.90;;;;;;;11.31;98.65;98406.36;108943;278;39178;-70
2023/10/27 01:07:32;;;;;;;8.80;8.00;;;;;;;11.30;98.83;98406.21;108990;278;38760;-68
2023/10/27 01:10:09;;;;;;;9.10;8.40;;;;;;;11.30;98.82;98401.90;108918;278;39743;-67
2023/10/27 01:12:47;;;;;;;8.10;7.40;;;;;;;11.30;98.99;98404.27;108983;278;39822;-70
2023/10/27 01:15:24;;;;;;;8.00;7.30;;;;;;;11.29;98.83;98398.44;108942;278;38363;-70
2023/10/27 01:18:04;;;;;;;7.80;7.10;;;;;;;11.28;98.71;98396.98;108970;278;38161;-67
2023/10/27 01:20:49;;;;;;;8.20;7.40;;;;;;;11.29;99.09;98390.98;108931;278;38771;-67
2023/10/27 01:23:32;;;;;;;8.10;7.40;;;;;;;11.31;99.08;98383.10;108922;278;38173;-67
2023/10/27 01:26:13;;;;;;;9.60;7.10;;;;;;;11.32;98.84;98386.20;108895;278;38431;-67
2023/10/27 01:28:53;;;;;;;8.10;7.30;;;;;;;11.33;98.87;98388.59;108933;278;38822;-66
2023/10/27 01:31:35;;;;;;;7.50;6.80;;;;;;;11.33;98.84;98389.80;108964;278;39619;-67
2023/10/27 01:34:12;;;;;;;7.50;6.90;;;;;;;11.35;98.90;98388.77;108807;278;38403;-67
2023/10/27 01:36:54;;;;;;;8.20;7.40;;;;;;;11.36;98.70;98391.48;108901;278;38350;-67
2023/10/27 01:39:35;;;;;;;8.50;7.60;;;;;;;11.35;98.74;98393.23;108892;278;38760;-67
2023/10/27 01:42:16;;;;;;;8.90;7.60;;;;;;;11.34;98.70;98391.05;108912;278;38264;-69
2023/10/27 01:44:53;;;;;;;9.70;7.30;;;;;;;11.33;98.50;98385.92;108953;278;38445;-70
2023/10/27 01:47:29;;;;;;;8.30;7.30;;;;;;;11.31;98.47;98388.52;108950;278;38603;-66
2023/10/27 01:50:11;;;;;;;7.50;6.70;;;;;;;11.27;98.18;98385.70;108930;278;38379;-67
2023/10/27 01:52:50;;;;;;;8.60;7.70;;;;;;;11.24;98.31;98383.77;108766;277;175001;-70
2023/10/27 01:55:32;;;;;;;8.30;7.50;;;;;;;11.23;98.35;98381.45;109022;277;39365;-70
2023/10/27 01:58:06;;;;;;;8.90;8.10;;;;;;;11.20;98.50;98375.20;108973;277;38865;-70
2023/10/27 02:00:40;;;;;;;7.80;7.00;;;;;;;11.20;98.71;98374.53;108968;277;38410;-70
2023/10/27 02:03:23;;;;;;;10.20;7.80;;;;;;;11.19;98.48;98371.23;109031;277;38306;-68
2023/10/27 02:05:59;;;;;;;8.30;7.50;;;;;;;11.17;98.33;98369.65;108943;277;38365;-67
2023/10/27 02:08:35;;;;;;;9.20;7.50;;;;;;;11.16;98.39;98368.98;109007;277;38492;-70
2023/10/27 02:11:09;;;;;;;8.80;7.80;;;;;;;11.13;98.34;98362.23;108934;277;38366;-70
2023/10/27 02:13:43;;;;;;;9.30;8.10;;;;;;;11.12;98.51;98362.15;109008;277;38458;-70
2023/10/27 02:16:17;;;;;;;8.10;7.30;;;;;;;11.12;98.72;98362.53;108949;277;38596;-70
2023/10/27 02:18:55;;;;;;;8.00;7.20;;;;;;;11.10;98.46;98358.64;109009;277;38661;-66
2023/10/27 02:21:31;;;;;;;8.40;7.30;;;;;;;11.08;98.45;98359.81;108967;277;38775;-67
2023/10/27 02:24:07;;;;;;;;;;;;;;;11.08;98.61;98364.54;108995;277;38993;-67
2023/10/27 02:26:44;;;;;;;8.90;8.10;;;;;;;11.05;98.91;98363.33;108975;277;39058;-67
2023/10/27 02:29:21;;;;;;;7.90;7.00;;;;;;;11.06;98.93;98359.48;108977;277;39845;-70
2023/10/27 02:31:55;;;;;;;7.90;7.20;;;;;;;11.04;98.84;98366.38;108951;277;38773;-70
2023/10/27 02:34:32;;;;;;;8.20;7.40;;;;;;;11.04;98.91;98365.90;108925;277;38358;-66
2023/10/27 02:37:12;;;;;;;8.20;6.90;;;;;;;11.04;98.87;98364.45;108951;277;38840;-67
2023/10/27 02:39:46;;;;;;;7.90;7.20;;;;;;;11.05;99.04;98364.22;108909;277;39466;-70
2023/10/27 02:42:21;;;;;;;7.60;6.90;;;;;;;11.04;98.68;98362.87;108987;277;40558;-70
2023/10/27 02:44:57;;;;;;;8.40;7.50;;;;;;;11.01;98.91;98361.17;109029;277;40153;-70
2023/10/27 02:47:35;;;;;;;9.10;7.90;;;;;;;11.01;98.84;98361.88;109031;277;38847;-67
2023/10/27 02:50:13;;;;;;;9.60;7.10;;;;;;;11.00;98.76;98362.01;107389;277;2054527;-67
2023/10/27 02:52:48;;;;;;;7.40;6.70;;;;;;;11.00;98.83;98361.30;108982;277;38415;-70
2023/10/27 02:55:24;;;;;;;9.30;7.40;;;;;;;10.99;98.66;98360.45;108835;277;172702;-70
2023/10/27 02:57:58;;;;;;;9.70;7.60;;;;;;;11.00;98.84;98355.86;108943;277;39332;-70
2023/10/27 03:00:33;;;;;;;8.80;7.90;;;;;;;10.98;98.67;98357.27;108917;277;39624;-70
2023/10/27 03:03:14;;;;;;;8.40;7.60;;;;;;;10.96;98.56;98352.02;109011;277;39417;-67
2023/10/27 03:06:01;;;;;;;7.80;7.10;;;;;;;10.93;98.69;98354.98;108925;277;38602;-67
2023/10/27 03:08:42;;;;;;;10.70;7.30;;;;;;;10.95;98.92;98350.33;109004;277;39864;-67
2023/10/27 03:11:18;;;;;;;9.20;7.50;;;;;;;10.96;99.11;98350.58;108947;277;38572;-67
2023/10/27 03:13:57;;;;;;;8.40;7.60;;;;;;;10.98;98.98;98351.85;108954;277;38379;-66
2023/10/27 03:16:35;;;;;;;8.00;7.20;;;;;;;10.95;98.80;98346.48;108945;277;38934;-67
2023/10/27 03:19:10;;;;;;;8.50;7.60;;;;;;;10.92;98.63;98344.58;109026;277;38277;-70
2023/10/27 03:21:44;;;;;;;9.20;7.10;;;;;;;10.93;98.95;98346.95;108953;277;39394;-70
2023/10/27 03:24:24;;;;;;;7.50;6.80;;;;;;;10.95;99.04;98349.24;109000;277;39358;-67
2023/10/27 03:26:59;;;;;;;7.70;6.90;;;;;;;10.95;98.70;98348.40;108975;277;39447;-67
2023/10/27 03:29:41;;;;;;;8.60;7.20;;;;;;;10.91;98.53;98346.59;108994;277;38448;-66
2023/10/27 03:32:18;;;;;;;10.50;7.60;;;;;;;10.89;98.72;98339.93;108935;277;38387;-68
2023/10/27 03:34:53;;;;;;;7.40;6.70;;;;;;;10.87;98.56;98331.85;108993;277;38255;-69
2023/10/27 03:37:28;;;;;;;7.70;6.90;;;;;;;10.87;98.76;98327.16;108969;277;38410;-67
2023/10/27 03:40:07;;;;;;;7.80;6.90;;;;;;;10.87;98.71;98320.50;108953;277;39327;-66
2023/10/27 03:42:43;;;;;;;8.10;7.30;;;;;;;10.86;98.57;98315.34;108979;277;38159;-69
2023/10/27 03:45:18;;;;;;;8.10;7.10;;;;;;;10.84;98.68;98311.83;108946;277;38241;-71
2023/10/27 03:47:57;;;;;;;7.90;7.20;;;;;;;10.83;98.74;98311.67;108965;277;38465;-66
2023/10/27 03:50:37;;;;;;;8.90;7.10;;;;;;;10.81;98.52;98311.34;108964;277;39580;-66
2023/10/27 03:53:13;;;;;;;7.90;7.10;;;;;;;10.82;98.73;98313.88;108977;277;38846;-68
2023/10/27 03:55:54;;;;;;;9.00;7.50;;;;;;;10.83;98.68;98314.20;108983;277;39043;-67
2023/10/27 03:58:31;;;;;;;7.90;7.20;;;;;;;10.81;98.55;98316.23;108933;277;38278;-70
2023/10/27 04:01:06;;;;;;;8.50;7.70;;;;;;;10.79;98.50;98314.80;108945;277;38458;-70
2023/10/27 04:03:43;;;;;;;7.30;6.60;;;;;;;10.77;98.51;98313.19;108992;277;39110;-70
2023/10/27 04:06:17;;;;;;;9.40;7.20;;;;;;;10.78;98.71;98314.67;108917;277;38383;-70
2023/10/27 04:09:00;;;;;;;9.10;6.90;;;;;;;10.79;98.61;98316.55;108935;277;38738;-67
2023/10/27 04:11:42;;;;;;;9.70;7.20;;;;;;;10.76;98.50;98320.94;108965;277;38280;-67
2023/10/27 04:14:23;;;;;;;7.90;7.10;;;;;;;10.72;98.27;98324.77;108960;277;39630;-66
2023/10/27 04:17:09;;;;;;;10.30;6.80;;;;;;;10.69;98.39;98330.71;108912;277;38445;-66
2023/10/27 04:19:48;;;;;;;8.30;7.40;;;;;;;10.68;98.61;98332.85;108918;277;40345;-70
2023/10/27 04:22:32;;;;;;;9.20;7.00;;;;;;;10.68;98.68;98333.18;109032;277;39664;-69
2023/10/27 04:25:10;;;;;;;11.80;7.80;;;;;;;10.68;98.62;98335.14;108970;277;40465;-66
2023/10/27 04:27:50;;;;;;;8.90;8.00;;;;;;;10.68;99.08;98339.48;108976;277;38439;-66
2023/10/27 04:30:26;;;;;;;9.30;8.30;;;;;;;10.69;98.97;98348.64;108993;277;38453;-66
2023/10/27 04:33:04;;;;;;;9.20;7.30;;;;;;;10.68;99.11;98350.66;108972;277;38432;-70
2023/10/27 04:35:38;;;;;;;11.20;7.70;;;;;;;10.68;98.81;98347.17;108934;277;38283;-70
2023/10/27 04:38:13;;;;;;;8.20;7.30;;;;;;;10.67;98.97;98342.84;108971;277;38759;-67
2023/10/27 04:40:48;;;;;;;8.10;7.30;;;;;;;10.70;99.28;98338.31;109008;277;38346;-67
2023/10/27 04:43:29;;;;;;;8.40;7.50;;;;;;;10.73;99.27;98339.30;108983;277;38760;-67
2023/10/27 04:46:09;;;;;;;8.80;7.60;;;;;;;10.74;99.26;98340.10;108987;277;39583;-66
2023/10/27 04:48:49;;;;;;;8.00;7.10;;;;;;;10.77;99.34;98337.09;108977;277;39488;-69
2023/10/27 04:51:24;;;;;;;11.20;7.70;;;;;;;10.82;99.68;98339.69;108936;277;39889;-70
2023/10/27 04:53:59;;;;;;;8.90;7.50;;;;;;;10.84;99.32;98343.94;109021;277;39692;-70
2023/10/27 04:56:36;;;;;;;8.40;7.30;;;;;;;10.83;98.99;98340.31;108938;277;39353;-69
2023/10/27 04:59:13;;;;;;;8.40;6.80;;;;;;;10.82;98.95;98339.67;109002;277;39651;-72
2023/10/27 05:01:53;;;;;;;8.00;7.20;;;;;;;10.81;98.87;98336.42;108947;277;37925;-70
2023/10/27 05:04:33;;;;;;;7.80;7.00;;;;;;;10.82;98.75;98338.86;108966;277;39499;-70
2023/10/27 05:07:12;;;;;;;8.30;7.20;;;;;;;10.83;98.89;98344.00;109016;277;38485;-70
2023/10/27 05:09:46;;;;;;;9.30;7.40;;;;;;;10.81;98.74;98343.94;109016;277;38638;-70
2023/10/27 05:12:23;;;;;;;9.30;7.90;;;;;;;10.79;98.86;98348.29;108996;277;40623;-68
2023/10/27 05:15:03;;;;;;;8.60;7.80;;;;;;;10.79;98.66;98352.28;108948;277;39658;-66
2023/10/27 05:17:41;;;;;;;9.00;8.00;;;;;;;10.80;98.88;98354.30;108994;277;38237;-69
2023/10/27 05:20:17;;;;;;;8.90;7.90;;;;;;;10.81;98.78;98354.45;108918;277;38742;-67
2023/10/27 05:22:56;;;;;;;8.00;7.20;;;;;;;10.81;98.57;98357.19;108995;277;40112;-66
2023/10/27 05:25:42;;;;;;;8.90;7.50;;;;;;;10.83;98.80;98355.64;108917;277;38246;-67
2023/10/27 05:28:23;;;;;;;9.60;8.30;;;;;;;10.84;98.58;98360.97;108956;277;38606;-67
2023/10/27 05:31:05;;;;;;;8.60;7.80;;;;;;;10.82;98.48;98362.05;108941;277;38759;-68
2023/10/27 05:33:44;;;;;;;9.10;8.00;;;;;;;10.80;98.45;98362.14;109009;277;38744;-67
2023/10/27 05:36:35;;;;;;;7.90;7.20;;;;;;;10.81;98.51;98370.48;108952;277;38285;-67
2023/10/27 05:39:16;;;;;;;9.10;8.10;;;;;;;10.81;98.47;98372.20;108974;277;37874;-70
2023/10/27 05:41:57;;;;;;;9.40;8.10;;;;;;;10.83;98.38;98371.38;108871;277;177730;-70
2023/10/27 05:44:41;;;;;;;9.00;8.20;;;;;;;10.82;98.36;98371.96;108999;277;38465;-68
2023/10/27 05:47:20;;;;;;;11.60;8.40;;;;;;;10.82;98.31;98375.11;108965;277;38458;-69
2023/10/27 05:49:54;;;;;;;;;;;;;;;10.81;98.39;98377.08;108985;277;38242;-67
2023/10/27 05:52:31;;;;;;;10.90;7.90;;;;;;;10.80;98.54;98381.55;108990;277;38272;-70
2023/10/27 05:55:05;;;;;;;10.90;8.00;;;;;;;10.81;98.43;98379.16;108972;277;38240;-70
2023/10/27 05:57:46;;;;;;;9.60;8.60;;;;;;;10.81;98.45;98380.09;109033;277;38362;-67
2023/10/27 06:00:38;;;;;;;10.10;8.90;;;;;;;10.80;98.25;98379.45;108982;277;38737;-66
2023/10/27 06:03:13;;;;;;;9.40;8.40;;;;;;;10.77;98.27;98382.64;108965;277;39107;-70
2023/10/27 06:05:48;;;;;;;11.00;8.20;;;;;;;10.76;98.38;98388.05;108971;277;38732;-70
2023/10/27 06:08:27;;;;;;;10.00;8.10;;;;;;;10.78;98.31;98391.97;108992;277;38445;-67
2023/10/27 06:11:10;;;;;;;8.20;7.50;;;;;;;10.80;98.41;98392.84;108941;277;38248;-66
2023/10/27 06:13:45;;;;;;;9.60;8.00;;;;;;;10.81;98.36;98397.84;108980;277;39424;-70
2023/10/27 06:16:22;;;;;;;10.60;7.60;;;;;;;10.81;98.43;98397.50;108956;277;38802;-70
2023/10/27 06:18:57;;;;;;;8.60;7.80;;;;;;;10.81;98.36;98401.16;108995;277;39790;-71
2023/10/27 06:21:32;;;;;;;8.00;7.20;;;;;;;10.81;98.20;98402.77;108926;277;38158;-70
2023/10/27 06:24:14;;;;;;;8.40;7.60;;;;;;;10.83;98.13;98404.20;108942;277;38488;-67
2023/10/27 06:26:54;;;;;;;8.80;7.80;;;;;;;10.84;98.34;98408.83;108929;277;41136;-66
2023/10/27 06:29:30;;;;;;;8.80;7.50;;;;;;;10.84;98.40;98410.88;108983;277;39042;-72
2023/10/27 06:32:09;;;;;;;8.00;7.30;;;;;;;10.87;98.28;98415.42;108963;277;38484;-71
2023/10/27 06:34:45;;;;;;;8.20;7.20;;;;;;;10.89;98.33;98413.02;108987;277;40435;-70
2023/10/27 06:37:21;;;;;;;9.10;7.40;;;;;;;10.92;98.40;98407.02;108964;277;40152;-70
2023/10/27 06:39:58;;;;;;;8.50;7.70;;;;;;;10.94;98.33;98404.64;109006;277;38789;-70
2023/10/27 06:42:34;;;;;;;10.00;8.50;;;;;;;10.95;98.52;98400.34;108999;277;39399;-70
2023/10/27 06:45:14;;;;;;;9.00;8.10;;;;;;;10.98;98.48;98399.46;108996;277;38173;-71
2023/10/27 06:47:49;;;;;;;9.40;7.60;;;;;;;11.03;98.70;98407.14;108986;277;38747;-68
2023/10/27 06:50:24;;;;;;;9.00;8.10;;;;;;;11.08;98.72;98410.76;108943;277;38363;-67
2023/10/27 06:53:03;;;;;;;10.30;8.50;;;;;;;11.11;98.46;98412.29;108984;277;39468;-67
2023/10/27 06:55:42;;;;;;;10.00;8.60;;;;;;;11.13;98.39;98414.08;108929;277;38187;-67
2023/10/27 06:58:20;;;;;;;9.20;7.80;;;;;;;11.16;98.32;98410.55;109000;277;39606;-68
2023/10/27 07:01:06;;;;;;;8.60;7.80;;;;;;;11.18;98.22;98407.96;108992;277;39444;-68
2023/10/27 07:03:44;;;;;;;10.50;8.50;;;;;;;11.25;98.55;98401.19;108951;277;39376;-67
2023/10/27 07:06:25;;;;;;;9.50;8.50;;;;;;;11.30;98.58;98397.14;108958;277;39445;-67
2023/10/27 07:09:00;;;;;;;9.30;8.40;;;;;;;11.36;98.56;98398.60;108932;277;38148;-70
2023/10/27 07:11:34;;;;;;;9.10;8.30;;;;;;;11.41;98.31;98395.71;108999;277;38660;-70
2023/10/27 07:14:14;;;;;;;9.20;8.20;;;;;;;11.46;98.30;98392.16;109021;277;38400;-66
2023/10/27 07:16:51;;;;;;;9.50;8.60;;;;;;;11.54;98.25;98390.02;108990;277;38189;-67
2023/10/27 07:19:32;;;;;;;11.40;9.80;;;;;;;11.59;97.97;98386.67;108962;277;39370;-67
2023/10/27 07:22:11;;;;;;;10.00;8.90;;;;;;;11.60;97.99;98385.13;108938;277;39578;-67
2023/10/27 07:24:47;;;;;;;11.90;9.00;;;;;;;11.67;98.27;98387.09;108906;277;39259;-71
2023/10/27 07:27:24;;;;;;;9.70;8.60;;;;;;;11.73;98.37;98384.39;108962;277;38787;-70
2023/10/27 07:30:03;;;;;;;12.30;9.90;;;;;;;11.80;98.21;98378.99;108964;277;38189;-70
2023/10/27 07:32:37;;;;;;;10.60;9.50;;;;;;;11.84;97.82;98374.46;108961;277;38188;-70
2023/10/27 07:35:12;;;;;;;13.40;10.30;;;;;;;11.88;97.75;98377.88;108953;277;39145;-71
2023/10/27 07:37:50;;;;;;;18.20;11.80;;;;;;;11.91;97.65;98375.39;109004;277;38296;-67
2023/10/27 07:40:27;;;;;;;19.00;11.00;;;;;;;11.93;97.28;98371.10;108972;277;39883;-67
2023/10/27 07:43:03;;;;;;;12.10;9.30;;;;;;;11.97;97.55;98374.11;109062;277;38561;-66
2023/10/27 07:45:42;;;;;;;11.20;9.20;;;;;;;12.01;97.22;98372.57;108949;277;38962;-66
2023/10/27 07:48:23;;;;;;;10.90;9.50;;;;;;;12.02;96.86;98376.10;108979;277;38176;-71
2023/10/27 07:51:03;;;;;;;10.90;9.60;;;;;;;12.03;96.94;98377.13;108947;277;38225;-70
2023/10/27 07:53:40;;;;;;;10.20;9.20;;;;;;;12.05;96.73;98382.54;108935;277;38193;-67
2023/10/27 07:56:18;;;;;;;14.70;9.70;;;;;;;12.05;96.29;98385.48;108970;277;39550;-67
2023/10/27 07:58:53;;;;;;;10.00;8.80;;;;;;;12.06;96.42;98385.95;108935;277;38476;-68
2023/10/27 08:01:34;;;;;;;9.60;8.70;;;;;;;12.10;96.24;98387.55;108975;277;38657;-66
2023/10/27 08:04:09;;;;;;;12.00;10.10;;;;;;;12.14;96.53;98386.94;108921;277;39031;-66
2023/10/27 08:06:59;;;;;;;11.40;9.80;;;;;;;12.17;96.37;98386.36;108950;277;39251;-66
2023/10/27 08:09:36;;;;;;;10.20;9.00;;;;;;;12.19;96.63;98388.14;108940;277;38180;-70
2023/10/27 08:12:16;;;;;;;10.40;9.50;;;;;;;12.25;96.81;98389.24;108829;277;172221;-70
2023/10/27 08:14:53;;;;;;;14.00;9.50;;;;;;;12.29;96.45;98396.40;108968;277;38182;-67
2023/10/27 08:17:30;;;;;;;11.50;9.50;;;;;;;12.30;95.94;98395.45;108908;277;38813;-68
2023/10/27 08:20:08;;;;;;;15.00;9.50;;;;;;;12.32;95.91;98398.51;108926;277;38226;-66
2023/10/27 08:22:46;;;;;;;12.80;11.20;;;;;;;12.32;95.90;98397.75;108980;277;38195;-70
2023/10/27 08:25:24;;;;;;;13.20;9.90;;;;;;;12.35;95.74;98400.30;108997;277;39829;-70
2023/10/27 08:27:59;;;;;;;10.80;9.60;;;;;;;12.39;95.71;98398.11;108954;277;38532;-70
2023/10/27 08:30:37;;;;;;;11.80;10.50;;;;;;;12.43;95.50;98402.36;108953;277;38464;-70
2023/10/27 08:33:12;;;;;;;11.60;10.30;;;;;;;12.45;94.95;98405.86;108965;277;38268;-70
2023/10/27 08:35:46;;;;;;;11.50;10.40;;;;;;;12.44;94.81;98408.39;108970;277;38390;-70
2023/10/27 08:38:22;;;;;;;11.30;10.20;;;;;;;12.44;94.67;98409.82;108995;277;38298;-71
2023/10/27 08:40:57;;;;;;;10.90;9.80;;;;;;;12.42;94.21;98410.30;108951;277;41291;-70
2023/10/27 08:43:38;;;;;;;11.50;9.10;;;;;;;12.43;94.11;98405.73;108975;277;38157;-71
2023/10/27 08:46:12;;;;;;;10.50;9.30;;;;;;;12.44;93.81;98401.07;108979;277;39360;-70
2023/10/27 08:48:50;;;;;;;10.80;9.10;;;;;;;12.45;93.78;98402.56;108971;277;39393;-67
2023/10/27 08:51:26;;;;;;;11.10;9.80;;;;;;;12.46;93.87;98405.29;108921;277;38311;-68
2023/10/27 08:54:05;;;;;;;11.10;10.00;;;;;;;12.45;93.87;98402.92;108905;277;39714;-70
2023/10/27 08:56:40;;;;;;;11.40;10.20;;;;;;;12.46;93.59;98399.88;108954;277;38740;-71
2023/10/27 08:59:17;;;;;;;10.10;9.10;;;;;;;12.49;93.66;98397.85;108971;277;39499;-70
2023/10/27 09:01:51;;;;;;;10.60;9.50;;;;;;;12.54;93.65;98399.42;108974;277;38315;-71
2023/10/27 09:04:33;;;;;;;11.30;10.20;;;;;;;12.56;94.21;98397.88;108994;277;38156;-67
2023/10/27 09:07:10;;;;;;;13.20;10.00;;;;;;;12.59;94.07;98402.36;108973;277;38257;-67
2023/10/27 09:09:48;;;;;;;10.60;9.60;;;;;;;12.61;93.77;98401.13;108967;277;38901;-69
2023/10/27 09:12:34;;;;;;;10.50;9.30;;;;;;;12.62;93.15;98401.27;108980;277;38135;-68
2023/10/27 09:15:13;;;;;;;11.30;10.20;;;;;;;12.60;92.97;98401.20;108960;277;38764;-67
2023/10/27 09:18:03;;;;;;;11.00;9.90;;;;;;;12.59;92.74;98404.63;108839;277;175303;-68
2023/10/27 09:20:50;;;;;;;11.90;10.20;;;;;;;12.58;92.98;98406.30;108969;277;38234;-67
2023/10/27 09:23:28;;;;;;;11.20;9.20;;;;;;;12.58;92.94;98405.34;108950;277;38485;-70
2023/10/27 09:26:03;;;;;;;10.40;9.40;;;;;;;12.59;92.98;98402.67;108871;277;175066;-70
2023/10/27 09:28:39;;;;;;;11.70;9.10;;;;;;;12.58;92.73;98398.06;109013;277;38391;-70
2023/10/27 09:31:18;;;;;;;9.70;8.70;;;;;;;12.56;92.48;98394.69;109011;277;38232;-71
2023/10/27 09:33:52;;;;;;;9.90;8.90;;;;;;;12.55;92.22;98394.83;108997;277;39612;-70
2023/10/27 09:36:28;;;;;;;9.30;8.40;;;;;;;12.55;92.27;98388.50;109003;277;38968;-70
2023/10/27 09:39:07;;;;;;;8.50;7.70;;;;;;;12.54;91.74;98391.17;108944;277;38472;-67
2023/10/27 09:41:46;;;;;;;10.60;8.20;;;;;;;12.52;91.61;98388.20;108934;277;38233;-67
2023/10/27 09:44:26;;;;;;;9.80;8.90;;;;;;;12.51;92.23;98387.02;108953;277;38146;-70
2023/10/27 09:47:00;;;;;;;9.50;8.00;;;;;;;12.51;92.04;98382.36;108938;277;38517;-70
2023/10/27 09:49:36;;;;;;;8.30;7.50;;;;;;;12.50;92.08;98383.95;109015;277;39533;-70
2023/10/27 09:52:22;;;;;;;8.90;8.10;;;;;;;12.54;92.19;98383.00;108979;277;38220;-68
2023/10/27 09:54:59;;;;;;;8.90;8.10;;;;;;;12.60;92.09;98380.39;108935;277;38429;-67
2023/10/27 09:57:34;;;;;;;9.00;8.10;;;;;;;12.65;92.38;98374.54;108951;277;39092;-70
2023/10/27 10:00:13;;;;;;;8.90;8.10;;;;;;;12.72;92.53;98373.83;108968;277;38173;-71
2023/10/27 10:02:47;;;;;;;10.10;8.50;;;;;;;12.81;92.67;98370.67;109027;277;38266;-70
2023/10/27 10:05:21;;;;;;;8.70;7.10;;;;;;;12.87;92.31;98369.20;108962;277;38187;-72
2023/10/27 10:08:00;;;;;;;8.40;7.30;;;;;;;12.93;92.17;98364.89;108987;277;38201;-70
2023/10/27 10:10:36;;;;;;;7.90;7.10;;;;;;;12.98;91.53;98366.15;108977;277;38168;-70
2023/10/27 10:13:17;;;;;;;8.00;7.20;;;;;;;13.06;91.77;98368.91;108826;277;174898;-66
2023/10/27 10:16:03;;;;;;;7.50;6.50;;;;;;;13.10;91.78;98360.70;108944;277;39387;-67
2023/10/27 10:18:57;;;;;;;6.20;5.40;;;;;;;13.13;90.28;98355.73;108941;277;39441;-67
2023/10/27 10:21:43;;;;;;;7.70;6.30;;;;;;;13.14;90.62;98354.39;108833;277;175276;-67
2023/10/27 10:24:22;;;;;;;6.80;6.00;;;;;;;13.17;89.37;98351.02;108910;277;38762;-71
2023/10/27 10:27:14;;;;;;;;;;;;;;;13.21;89.46;98347.77;108987;277;38266;-71
2023/10/27 10:29:51;;;;;;;6.40;5.90;;;;;;;13.21;89.07;98345.97;108976;277;39952;-75
2023/10/27 10:32:39;;;;;;;7.50;6.80;;;;;;;13.19;87.62;98347.16;108971;277;38511;-70
2023/10/27 10:35:28;;;;;;;7.00;6.30;;;;;;;13.21;88.69;98346.36;108961;277;39743;-71
2023/10/27 10:38:06;;;;;;;7.40;6.50;;;;;;;13.24;88.89;98340.84;109034;277;38902;-70
2023/10/27 10:40:43;;;;;;;;;;;;;;;13.31;89.85;98328.52;108969;277;38150;-70
2023/10/27 10:43:34;;;;;;;7.70;6.80;;;;;;;13.34;89.87;98320.39;108957;277;38082;-68
2023/10/27 10:46:22;;;;;;;6.80;6.20;;;;;;;13.45;89.38;98323.21;108935;277;38126;-69
2023/10/27 10:48:59;;;;;;;7.60;6.80;;;;;;;13.51;88.58;98317.63;108374;277;762971;-71
2023/10/27 10:51:37;;;;;;;7.60;6.40;;;;;;;13.58;88.98;98316.00;108979;277;40146;-70
2023/10/27 10:54:16;;;;;;;7.70;5.70;;;;;;;13.63;88.19;98317.15;108945;276;38788;-66
2023/10/27 10:56:56;;;;;;;6.60;5.90;;;;;;;13.63;86.81;98322.36;109014;277;39356;-66
2023/10/27 10:59:32;;;;;;;5.70;5.20;;;;;;;13.61;86.33;98325.02;109035;277;38754;-70
2023/10/27 11:02:08;;;;;;;6.50;5.90;;;;;;;13.61;86.47;98326.96;108981;277;39398;-70
2023/10/27 11:04:49;;;;;;;7.00;6.30;;;;;;;13.57;85.84;98331.48;109016;277;38414;-66
2023/10/27 11:07:25;;;;;;;6.70;6.00;;;;;;;13.51;85.34;98336.15;108984;277;38431;-70
2023/10/27 11:10:13;;;;;;;7.00;6.10;;;;;;;13.42;84.75;98332.23;108988;277;38700;-70
2023/10/27 11:12:49;;;;;;;7.10;6.50;;;;;;;13.33;84.47;98333.33;108993;277;39915;-70
2023/10/27 11:15:48;;;;;;;6.90;5.90;;;;;;;13.26;83.78;98332.64;108297;277;894738;-70
2023/10/27 11:18:29;;;;;;;6.60;6.00;;;;;;;13.18;83.40;98330.98;109026;277;38145;-66
2023/10/27 11:21:07;;;;;;;7.30;6.40;;;;;;;13.13;84.12;98326.29;108928;277;38243;-67
2023/10/27 11:23:49;;;;;;;7.10;6.50;;;;;;;13.11;84.61;98317.39;108962;277;38235;-70
2023/10/27 11:26:24;;;;;;;6.80;6.20;;;;;;;13.08;84.63;98316.92;108952;277;38475;-70
2023/10/27 11:29:04;;;;;;;6.00;5.50;;;;;;;13.07;84.93;98314.04;108957;277;38867;-68
2023/10/27 11:31:42;;;;;;;7.90;5.90;;;;;;;13.07;84.90;98313.68;108984;277;39903;-67
2023/10/27 11:34:26;;;;;;;6.70;5.90;;;;;;;13.05;84.18;98309.25;108827;277;189000;-67
2023/10/27 11:37:10;;;;;;;6.50;5.90;;;;;;;13.03;83.66;98305.98;108972;277;38175;-67
2023/10/27 11:39:47;;;;;;;7.30;6.70;;;;;;;12.99;84.32;98305.40;108933;277;38234;-67
2023/10/27 11:42:26;;;;;;;6.80;6.20;;;;;;;12.99;84.96;98302.73;109019;277;38925;-70
2023/10/27 11:45:02;;;;;;;;;;;;;;;12.98;84.02;98306.50;109014;277;38243;-70
2023/10/27 11:47:48;;;;;;;7.90;6.10;;;;;;;12.94;83.94;98305.48;108973;277;38570;-68
2023/10/27 11:50:24;;;;;;;7.70;6.60;;;;;;;12.94;83.22;98310.17;108958;277;39367;-68
2023/10/27 11:52:58;;;;;;;7.60;6.80;;;;;;;12.94;84.20;98307.36;108985;277;38221;-70
2023/10/27 11:55:38;;;;;;;7.00;6.40;;;;;;;12.97;84.10;98303.95;108992;277;38691;-71
2023/10/27 11:58:13;;;;;;;6.90;6.30;;;;;;;12.98;84.64;98301.48;108974;277;38656;-70
2023/10/27 12:00:47;;;;;;;8.30;6.80;;;;;;;12.97;84.99;98298.39;108990;277;38572;-71
2023/10/27 12:03:21;;;;;;;6.90;6.30;;;;;;;12.99;84.51;98296.14;108966;277;38239;-70
2023/10/27 12:05:55;;;;;;;6.90;6.30;;;;;;;12.98;84.06;98295.49;108917;277;39088;-70
2023/10/27 12:08:31;;;;;;;8.30;7.50;;;;;;;12.97;84.05;98288.59;109015;277;38211;-68
2023/10/27 12:11:07;;;;;;;7.90;6.50;;;;;;;12.98;84.69;98289.25;108949;277;38702;-67
2023/10/27 12:13:46;;;;;;;7.30;6.60;;;;;;;12.98;84.41;98284.52;108961;277;40801;-68
2023/10/27 12:16:24;;;;;;;7.50;6.70;;;;;;;12.97;84.08;98275.10;109016;277;38309;-67
2023/10/27 12:19:01;;;;;;;7.20;6.60;;;;;;;12.99;84.27;98272.31;108976;277;38715;-70
2023/10/27 12:21:37;;;;;;;8.50;7.20;;;;;;;12.99;83.75;98274.77;108949;277;38710;-70
2023/10/27 12:24:16;;;;;;;7.80;7.10;;;;;;;12.97;83.65;98268.84;109030;277;38760;-67